sensor_id;sensor_type;location;lat;lon;timestamp;temperature;humidity
20714;DHT22;10518;50.742;4.226;2023-03-01T00:01:58;1.30;99.90
20714;DHT22;10518;50.742;4.226;2023-03-01T00:04:23;1.30;99.90
20714;DHT22;10518;50.742;4.226;2023-03-01T00:06:49;1.30;99.90
20714;DHT22;10518;50.742;4.226;2023-03-01T00:09:15;1.20;99.90
20714;DHT22;10518;50.742;4.226;2023-03-01T00:11:41;1.30;99.90
20714;DHT22;10518;50.742;4.226;2023-03-01T00:14:07;1.30;99.90
20714;DHT22;10518;50.742;4.226;2023-03-01T00:16:39;1.40;99.90
20714;DHT22;10518;50.742;4.226;2023-03-01T00:19:07;1.40;99.90
20714;DHT22;10518;50.742;4.226;2023-03-01T00:21:32;1.40;99.90
20714;DHT22;10518;50.742;4.226;2023-03-01T00:24:00;1.40;99.90
20714;DHT22;10518;50.742;4.226;2023-03-01T00:26:27;1.20;99.90
20714;DHT22;10518;50.742;4.226;2023-03-01T00:28:53;1.30;99.90
20714;DHT22;10518;50.742;4.226;2023-03-01T00:31:22;1.30;99.90
20714;DHT22;10518;50.742;4.226;2023-03-01T00:33:48;1.10;99.90
20714;DHT22;10518;50.742;4.226;2023-03-01T00:36:17;1.20;99.90
20714;DHT22;10518;50.742;4.226;2023-03-01T00:38:44;1.30;99.90
20714;DHT22;10518;50.742;4.226;2023-03-01T00:41:15;1.30;99.90
20714;DHT22;10518;50.742;4.226;2023-03-01T00:43:41;1.20;99.90
20714;DHT22;10518;50.742;4.226;2023-03-01T00:46:10;1.00;99.90
20714;DHT22;10518;50.742;4.226;2023-03-01T00:48:36;1.00;99.90
20714;DHT22;10518;50.742;4.226;2023-03-01T00:51:09;1.10;99.90
20714;DHT22;10518;50.742;4.226;2023-03-01T00:53:36;1.20;99.90
20714;DHT22;10518;50.742;4.226;2023-03-01T00:56:02;1.10;99.90
20714;DHT22;10518;50.742;4.226;2023-03-01T00:58:29;1.00;99.90
20714;DHT22;10518;50.742;4.226;2023-03-01T01:00:55;1.00;99.90
20714;DHT22;10518;50.742;4.226;2023-03-01T01:03:21;1.20;99.90
20714;DHT22;10518;50.742;4.226;2023-03-01T01:05:46;1.50;99.90
20714;DHT22;10518;50.742;4.226;2023-03-01T01:08:12;1.20;99.90
20714;DHT22;10518;50.742;4.226;2023-03-01T01:10:38;1.10;99.90
20714;DHT22;10518;50.742;4.226;2023-03-01T01:13:04;1.20;99.90
20714;DHT22;10518;50.742;4.226;2023-03-01T01:15:33;1.10;99.90
20714;DHT22;10518;50.742;4.226;2023-03-01T01:17:59;1.00;99.90
20714;DHT22;10518;50.742;4.226;2023-03-01T01:20:24;0.90;99.90
20714;DHT22;10518;50.742;4.226;2023-03-01T01:22:50;0.90;99.90
20714;DHT22;10518;50.742;4.226;2023-03-01T01:25:16;1.10;99.90
20714;DHT22;10518;50.742;4.226;2023-03-01T01:27:42;1.10;99.90
20714;DHT22;10518;50.742;4.226;2023-03-01T01:30:08;0.90;99.90
20714;DHT22;10518;50.742;4.226;2023-03-01T01:32:33;0.70;99.90
20714;DHT22;10518;50.742;4.226;2023-03-01T01:34:59;0.50;99.90
20714;DHT22;10518;50.742;4.226;2023-03-01T01:37:25;0.50;99.90
20714;DHT22;10518;50.742;4.226;2023-03-01T01:39:57;0.60;99.90
20714;DHT22;10518;50.742;4.226;2023-03-01T01:42:24;0.60;99.90
20714;DHT22;10518;50.742;4.226;2023-03-01T01:47:47;0.70;99.90
20714;DHT22;10518;50.742;4.226;2023-03-01T01:50:17;0.70;99.90
20714;DHT22;10518;50.742;4.226;2023-03-01T01:52:44;0.60;99.90
20714;DHT22;10518;50.742;4.226;2023-03-01T01:55:15;0.40;99.90
20714;DHT22;10518;50.742;4.226;2023-03-01T01:57:44;0.30;99.90
20714;DHT22;10518;50.742;4.226;2023-03-01T02:00:19;0.40;99.90
20714;DHT22;10518;50.742;4.226;2023-03-01T02:02:47;0.40;99.90
20714;DHT22;10518;50.742;4.226;2023-03-01T02:05:15;0.50;99.90
20714;DHT22;10518;50.742;4.226;2023-03-01T02:07:45;0.60;99.90
20714;DHT22;10518;50.742;4.226;2023-03-01T02:10:12;0.60;99.90
20714;DHT22;10518;50.742;4.226;2023-03-01T02:12:38;0.50;99.90
20714;DHT22;10518;50.742;4.226;2023-03-01T02:15:05;0.40;99.90
20714;DHT22;10518;50.742;4.226;2023-03-01T02:17:31;0.40;99.90
20714;DHT22;10518;50.742;4.226;2023-03-01T02:20:07;0.40;99.90
20714;DHT22;10518;50.742;4.226;2023-03-01T02:22:36;0.40;99.90
20714;DHT22;10518;50.742;4.226;2023-03-01T02:30:33;0.30;99.90
20714;DHT22;10518;50.742;4.226;2023-03-01T02:33:00;0.30;99.90
20714;DHT22;10518;50.742;4.226;2023-03-01T02:35:35;0.30;99.90
20714;DHT22;10518;50.742;4.226;2023-03-01T02:38:03;0.30;99.90
20714;DHT22;10518;50.742;4.226;2023-03-01T02:40:33;0.30;99.90
20714;DHT22;10518;50.742;4.226;2023-03-01T02:42:59;0.30;99.90
20714;DHT22;10518;50.742;4.226;2023-03-01T02:45:26;0.40;99.90
20714;DHT22;10518;50.742;4.226;2023-03-01T02:47:56;0.30;99.90
20714;DHT22;10518;50.742;4.226;2023-03-01T02:53:16;0.20;99.90
20714;DHT22;10518;50.742;4.226;2023-03-01T02:55:45;0.30;99.90
20714;DHT22;10518;50.742;4.226;2023-03-01T02:58:11;0.20;99.90
20714;DHT22;10518;50.742;4.226;2023-03-01T03:00:39;0.20;99.90
20714;DHT22;10518;50.742;4.226;2023-03-01T03:03:11;0.30;99.90
20714;DHT22;10518;50.742;4.226;2023-03-01T03:05:38;0.30;99.90
20714;DHT22;10518;50.742;4.226;2023-03-01T03:08:04;0.40;99.90
20714;DHT22;10518;50.742;4.226;2023-03-01T03:10:33;0.40;99.90
20714;DHT22;10518;50.742;4.226;2023-03-01T03:13:05;0.40;99.90
20714;DHT22;10518;50.742;4.226;2023-03-01T03:15:32;0.20;99.90
20714;DHT22;10518;50.742;4.226;2023-03-01T03:18:02;0.10;99.90
20714;DHT22;10518;50.742;4.226;2023-03-01T03:20:28;0.10;99.90
20714;DHT22;10518;50.742;4.226;2023-03-01T03:22:56;0.00;99.90
20714;DHT22;10518;50.742;4.226;2023-03-01T03:25:24;0.10;99.90
20714;DHT22;10518;50.742;4.226;2023-03-01T03:27:51;0.20;99.90
20714;DHT22;10518;50.742;4.226;2023-03-01T03:30:26;0.20;99.90
20714;DHT22;10518;50.742;4.226;2023-03-01T03:32:52;0.00;99.90
20714;DHT22;10518;50.742;4.226;2023-03-01T03:35:29;-0.10;99.90
20714;DHT22;10518;50.742;4.226;2023-03-01T03:37:56;-0.20;99.90
20714;DHT22;10518;50.742;4.226;2023-03-01T03:40:34;0.00;99.90
20714;DHT22;10518;50.742;4.226;2023-03-01T03:43:01;0.00;99.90
20714;DHT22;10518;50.742;4.226;2023-03-01T03:45:27;-0.10;99.90
20714;DHT22;10518;50.742;4.226;2023-03-01T03:47:52;-0.10;99.90
20714;DHT22;10518;50.742;4.226;2023-03-01T03:50:18;0.10;99.90
20714;DHT22;10518;50.742;4.226;2023-03-01T03:52:44;0.10;99.90
20714;DHT22;10518;50.742;4.226;2023-03-01T03:55:11;0.00;99.90
20714;DHT22;10518;50.742;4.226;2023-03-01T03:57:38;-0.10;99.90
20714;DHT22;10518;50.742;4.226;2023-03-01T04:00:06;-0.10;99.90
20714;DHT22;10518;50.742;4.226;2023-03-01T04:02:39;-0.30;99.90
20714;DHT22;10518;50.742;4.226;2023-03-01T04:05:05;-0.30;99.90
20714;DHT22;10518;50.742;4.226;2023-03-01T04:07:31;-0.30;99.90
20714;DHT22;10518;50.742;4.226;2023-03-01T04:09:56;-0.20;99.90
20714;DHT22;10518;50.742;4.226;2023-03-01T04:12:22;-0.20;99.90
20714;DHT22;10518;50.742;4.226;2023-03-01T04:14:48;-0.20;99.90
20714;DHT22;10518;50.742;4.226;2023-03-01T04:17:14;-0.20;99.90
20714;DHT22;10518;50.742;4.226;2023-03-01T04:19:39;-0.20;99.90
20714;DHT22;10518;50.742;4.226;2023-03-01T04:22:05;-0.20;99.90
20714;DHT22;10518;50.742;4.226;2023-03-01T04:24:37;-0.30;99.90
20714;DHT22;10518;50.742;4.226;2023-03-01T04:27:03;-0.30;99.90
20714;DHT22;10518;50.742;4.226;2023-03-01T04:29:29;-0.20;99.90
20714;DHT22;10518;50.742;4.226;2023-03-01T04:31:55;-0.10;99.90
20714;DHT22;10518;50.742;4.226;2023-03-01T04:34:20;-0.20;99.90
20714;DHT22;10518;50.742;4.226;2023-03-01T04:36:46;-0.10;99.90
20714;DHT22;10518;50.742;4.226;2023-03-01T04:39:11;-0.10;99.90
20714;DHT22;10518;50.742;4.226;2023-03-01T04:41:38;0.00;99.90
20714;DHT22;10518;50.742;4.226;2023-03-01T04:44:05;0.00;99.90
20714;DHT22;10518;50.742;4.226;2023-03-01T04:46:30;-0.10;99.90
20714;DHT22;10518;50.742;4.226;2023-03-01T04:48:56;-0.20;99.90
20714;DHT22;10518;50.742;4.226;2023-03-01T04:51:22;-0.20;99.90
20714;DHT22;10518;50.742;4.226;2023-03-01T04:53:47;-0.20;99.90
20714;DHT22;10518;50.742;4.226;2023-03-01T04:56:13;-0.20;99.90
20714;DHT22;10518;50.742;4.226;2023-03-01T04:58:39;-0.40;99.90
20714;DHT22;10518;50.742;4.226;2023-03-01T05:01:13;-0.50;99.90
20714;DHT22;10518;50.742;4.226;2023-03-01T05:03:50;-0.40;99.90
20714;DHT22;10518;50.742;4.226;2023-03-01T05:06:17;-0.30;99.90
20714;DHT22;10518;50.742;4.226;2023-03-01T05:08:43;-0.50;99.90
20714;DHT22;10518;50.742;4.226;2023-03-01T05:11:10;-0.50;99.90
20714;DHT22;10518;50.742;4.226;2023-03-01T05:13:37;-0.40;99.90
20714;DHT22;10518;50.742;4.226;2023-03-01T05:16:04;-0.50;99.90
20714;DHT22;10518;50.742;4.226;2023-03-01T05:18:32;-0.40;99.90
20714;DHT22;10518;50.742;4.226;2023-03-01T05:21:16;-0.50;99.90
20714;DHT22;10518;50.742;4.226;2023-03-01T05:23:42;-0.60;99.90
20714;DHT22;10518;50.742;4.226;2023-03-01T05:26:08;-0.60;99.90
20714;DHT22;10518;50.742;4.226;2023-03-01T05:28:34;-0.60;99.90
20714;DHT22;10518;50.742;4.226;2023-03-01T05:31:02;-0.70;99.90
20714;DHT22;10518;50.742;4.226;2023-03-01T05:33:28;-0.60;99.90
20714;DHT22;10518;50.742;4.226;2023-03-01T05:35:54;-0.60;99.90
20714;DHT22;10518;50.742;4.226;2023-03-01T05:38:20;-0.60;99.90
20714;DHT22;10518;50.742;4.226;2023-03-01T05:40:48;-0.60;99.90
20714;DHT22;10518;50.742;4.226;2023-03-01T05:43:15;-0.60;99.90
20714;DHT22;10518;50.742;4.226;2023-03-01T05:45:41;-0.70;99.90
20714;DHT22;10518;50.742;4.226;2023-03-01T05:48:08;-0.70;99.90
20714;DHT22;10518;50.742;4.226;2023-03-01T05:50:38;-0.70;99.90
20714;DHT22;10518;50.742;4.226;2023-03-01T05:53:06;-0.80;99.90
20714;DHT22;10518;50.742;4.226;2023-03-01T05:55:34;-0.80;99.90
20714;DHT22;10518;50.742;4.226;2023-03-01T05:58:02;-0.80;99.90
20714;DHT22;10518;50.742;4.226;2023-03-01T06:00:29;-0.80;99.90
20714;DHT22;10518;50.742;4.226;2023-03-01T06:02:55;-0.90;99.90
20714;DHT22;10518;50.742;4.226;2023-03-01T06:05:21;-1.00;99.90
20714;DHT22;10518;50.742;4.226;2023-03-01T06:07:47;-1.00;99.90
20714;DHT22;10518;50.742;4.226;2023-03-01T06:10:16;-1.00;99.90
20714;DHT22;10518;50.742;4.226;2023-03-01T06:12:43;-0.80;99.90
20714;DHT22;10518;50.742;4.226;2023-03-01T06:15:13;-0.80;99.90
20714;DHT22;10518;50.742;4.226;2023-03-01T06:17:41;-0.80;99.90
20714;DHT22;10518;50.742;4.226;2023-03-01T06:20:17;-0.90;99.90
20714;DHT22;10518;50.742;4.226;2023-03-01T06:22:43;-0.70;99.90
20714;DHT22;10518;50.742;4.226;2023-03-01T06:25:16;-0.80;99.90
20714;DHT22;10518;50.742;4.226;2023-03-01T06:27:45;-0.80;99.90
20714;DHT22;10518;50.742;4.226;2023-03-01T06:30:16;-0.70;99.90
20714;DHT22;10518;50.742;4.226;2023-03-01T06:32:42;-0.80;99.90
20714;DHT22;10518;50.742;4.226;2023-03-01T06:35:09;-0.90;99.90
20714;DHT22;10518;50.742;4.226;2023-03-01T06:37:35;-0.80;99.90
20714;DHT22;10518;50.742;4.226;2023-03-01T06:40:03;-0.80;99.90
20714;DHT22;10518;50.742;4.226;2023-03-01T06:42:37;-0.90;99.90
20714;DHT22;10518;50.742;4.226;2023-03-01T06:45:05;-0.90;99.90
20714;DHT22;10518;50.742;4.226;2023-03-01T06:47:31;-0.90;99.90
20714;DHT22;10518;50.742;4.226;2023-03-01T06:49:58;-0.80;99.90
20714;DHT22;10518;50.742;4.226;2023-03-01T06:52:24;-0.90;99.90
20714;DHT22;10518;50.742;4.226;2023-03-01T06:54:50;-1.00;99.90
20714;DHT22;10518;50.742;4.226;2023-03-01T06:57:16;-0.90;99.90
20714;DHT22;10518;50.742;4.226;2023-03-01T06:59:42;-0.90;99.90
20714;DHT22;10518;50.742;4.226;2023-03-01T07:02:10;-0.80;99.90
20714;DHT22;10518;50.742;4.226;2023-03-01T07:04:36;-0.80;99.90
20714;DHT22;10518;50.742;4.226;2023-03-01T07:07:02;-0.60;99.90
20714;DHT22;10518;50.742;4.226;2023-03-01T07:09:28;-0.60;99.90
20714;DHT22;10518;50.742;4.226;2023-03-01T07:11:53;-0.60;99.90
20714;DHT22;10518;50.742;4.226;2023-03-01T07:14:19;-0.60;99.90
20714;DHT22;10518;50.742;4.226;2023-03-01T07:16:45;-0.60;99.90
20714;DHT22;10518;50.742;4.226;2023-03-01T07:19:11;-0.40;99.90
20714;DHT22;10518;50.742;4.226;2023-03-01T07:21:37;-0.40;99.90
20714;DHT22;10518;50.742;4.226;2023-03-01T07:24:06;-0.30;99.90
20714;DHT22;10518;50.742;4.226;2023-03-01T07:26:32;-0.10;99.90
20714;DHT22;10518;50.742;4.226;2023-03-01T07:29:02;-0.10;99.90
20714;DHT22;10518;50.742;4.226;2023-03-01T07:31:28;-0.10;99.90
20714;DHT22;10518;50.742;4.226;2023-03-01T07:33:54;-0.20;99.90
20714;DHT22;10518;50.742;4.226;2023-03-01T07:36:20;-0.10;99.90
20714;DHT22;10518;50.742;4.226;2023-03-01T07:38:48;0.00;99.90
20714;DHT22;10518;50.742;4.226;2023-03-01T07:41:14;0.00;99.90
20714;DHT22;10518;50.742;4.226;2023-03-01T07:43:39;0.10;99.90
20714;DHT22;10518;50.742;4.226;2023-03-01T07:46:05;0.10;99.90
20714;DHT22;10518;50.742;4.226;2023-03-01T07:48:32;0.20;99.90
20714;DHT22;10518;50.742;4.226;2023-03-01T07:51:03;0.30;99.90
20714;DHT22;10518;50.742;4.226;2023-03-01T07:53:29;0.30;99.90
20714;DHT22;10518;50.742;4.226;2023-03-01T07:56:04;0.30;99.90
20714;DHT22;10518;50.742;4.226;2023-03-01T07:58:30;0.30;99.90
20714;DHT22;10518;50.742;4.226;2023-03-01T08:00:57;0.50;99.90
20714;DHT22;10518;50.742;4.226;2023-03-01T08:03:25;0.60;99.90
20714;DHT22;10518;50.742;4.226;2023-03-01T08:05:51;0.70;99.90
20714;DHT22;10518;50.742;4.226;2023-03-01T08:08:17;0.80;99.90
20714;DHT22;10518;50.742;4.226;2023-03-01T08:10:42;0.80;99.90
20714;DHT22;10518;50.742;4.226;2023-03-01T08:13:08;0.90;99.90
20714;DHT22;10518;50.742;4.226;2023-03-01T08:15:33;0.90;99.90
20714;DHT22;10518;50.742;4.226;2023-03-01T08:17:59;1.00;99.90
20714;DHT22;10518;50.742;4.226;2023-03-01T08:20:26;1.10;99.90
20714;DHT22;10518;50.742;4.226;2023-03-01T08:22:52;1.20;99.90
20714;DHT22;10518;50.742;4.226;2023-03-01T08:25:17;1.20;99.90
20714;DHT22;10518;50.742;4.226;2023-03-01T08:27:43;1.10;99.90
20714;DHT22;10518;50.742;4.226;2023-03-01T08:30:09;1.10;99.90
20714;DHT22;10518;50.742;4.226;2023-03-01T08:32:37;1.20;99.90
20714;DHT22;10518;50.742;4.226;2023-03-01T08:35:03;1.30;99.90
20714;DHT22;10518;50.742;4.226;2023-03-01T08:37:29;1.30;99.90
20714;DHT22;10518;50.742;4.226;2023-03-01T08:39:58;1.40;99.90
20714;DHT22;10518;50.742;4.226;2023-03-01T08:42:24;1.30;99.90
20714;DHT22;10518;50.742;4.226;2023-03-01T08:44:49;1.20;99.90
20714;DHT22;10518;50.742;4.226;2023-03-01T08:47:15;1.30;99.90
20714;DHT22;10518;50.742;4.226;2023-03-01T08:49:41;1.40;99.90
20714;DHT22;10518;50.742;4.226;2023-03-01T08:52:06;1.30;99.90
20714;DHT22;10518;50.742;4.226;2023-03-01T08:54:32;1.40;99.90
20714;DHT22;10518;50.742;4.226;2023-03-01T08:56:57;1.50;99.90
20714;DHT22;10518;50.742;4.226;2023-03-01T08:59:25;1.50;99.90
20714;DHT22;10518;50.742;4.226;2023-03-01T09:01:51;1.60;99.90
20714;DHT22;10518;50.742;4.226;2023-03-01T09:04:18;1.60;99.90
20714;DHT22;10518;50.742;4.226;2023-03-01T09:06:43;1.70;99.90
20714;DHT22;10518;50.742;4.226;2023-03-01T09:09:14;1.80;99.90
20714;DHT22;10518;50.742;4.226;2023-03-01T09:11:41;2.00;99.90
20714;DHT22;10518;50.742;4.226;2023-03-01T09:14:07;2.00;99.90
20714;DHT22;10518;50.742;4.226;2023-03-01T09:16:32;2.30;99.90
20714;DHT22;10518;50.742;4.226;2023-03-01T09:19:02;2.60;99.90
20714;DHT22;10518;50.742;4.226;2023-03-01T09:21:28;2.60;99.90
20714;DHT22;10518;50.742;4.226;2023-03-01T09:23:56;2.50;99.90
20714;DHT22;10518;50.742;4.226;2023-03-01T09:26:22;2.70;99.90
20714;DHT22;10518;50.742;4.226;2023-03-01T09:28:50;2.60;99.90
20714;DHT22;10518;50.742;4.226;2023-03-01T09:31:17;2.60;99.90
20714;DHT22;10518;50.742;4.226;2023-03-01T09:33:45;2.60;99.90
20714;DHT22;10518;50.742;4.226;2023-03-01T09:36:14;2.60;99.90
20714;DHT22;10518;50.742;4.226;2023-03-01T09:38:40;2.70;99.90
20714;DHT22;10518;50.742;4.226;2023-03-01T09:41:33;2.70;99.90
20714;DHT22;10518;50.742;4.226;2023-03-01T09:44:51;2.80;99.90
20714;DHT22;10518;50.742;4.226;2023-03-01T09:47:25;2.80;99.90
20714;DHT22;10518;50.742;4.226;2023-03-01T09:50:14;2.80;99.90
20714;DHT22;10518;50.742;4.226;2023-03-01T09:55:27;2.70;99.90
20714;DHT22;10518;50.742;4.226;2023-03-01T09:58:29;2.70;99.90
20714;DHT22;10518;50.742;4.226;2023-03-01T10:00:52;2.90;99.90
20714;DHT22;10518;50.742;4.226;2023-03-01T10:03:22;3.00;99.90
20714;DHT22;10518;50.742;4.226;2023-03-01T10:06:23;2.90;99.90
20714;DHT22;10518;50.742;4.226;2023-03-01T10:09:05;3.20;99.90
20714;DHT22;10518;50.742;4.226;2023-03-01T10:11:37;3.30;99.90
20714;DHT22;10518;50.742;4.226;2023-03-01T10:14:30;3.20;99.90
20714;DHT22;10518;50.742;4.226;2023-03-01T10:16:55;3.30;99.90
20714;DHT22;10518;50.742;4.226;2023-03-01T10:19:39;3.20;99.90
20714;DHT22;10518;50.742;4.226;2023-03-01T10:22:13;3.30;99.90
20714;DHT22;10518;50.742;4.226;2023-03-01T10:24:40;3.30;99.90
20714;DHT22;10518;50.742;4.226;2023-03-01T10:27:23;3.30;99.90
20714;DHT22;10518;50.742;4.226;2023-03-01T10:29:51;3.40;99.90
20714;DHT22;10518;50.742;4.226;2023-03-01T10:32:19;3.40;99.90
20714;DHT22;10518;50.742;4.226;2023-03-01T10:34:45;3.40;99.90
20714;DHT22;10518;50.742;4.226;2023-03-01T10:37:16;3.60;99.90
20714;DHT22;10518;50.742;4.226;2023-03-01T10:40:05;3.50;99.90
20714;DHT22;10518;50.742;4.226;2023-03-01T10:42:47;3.40;99.90
20714;DHT22;10518;50.742;4.226;2023-03-01T10:50:45;3.90;99.90
20714;DHT22;10518;50.742;4.226;2023-03-01T10:58:31;3.70;99.90
20714;DHT22;10518;50.742;4.226;2023-03-01T11:00:59;3.70;99.90
20714;DHT22;10518;50.742;4.226;2023-03-01T11:03:31;3.60;99.90
20714;DHT22;10518;50.742;4.226;2023-03-01T11:08:36;3.80;99.90
20714;DHT22;10518;50.742;4.226;2023-03-01T11:11:23;3.90;99.90
20714;DHT22;10518;50.742;4.226;2023-03-01T11:14:12;3.90;99.90
20714;DHT22;10518;50.742;4.226;2023-03-01T11:16:40;3.80;99.90
20714;DHT22;10518;50.742;4.226;2023-03-01T11:21:38;4.10;99.90
20714;DHT22;10518;50.742;4.226;2023-03-01T11:24:10;3.90;99.90
20714;DHT22;10518;50.742;4.226;2023-03-01T11:26:41;4.00;99.90
20714;DHT22;10518;50.742;4.226;2023-03-01T11:29:17;4.00;99.90
20714;DHT22;10518;50.742;4.226;2023-03-01T11:31:47;4.20;99.90
20714;DHT22;10518;50.742;4.226;2023-03-01T11:34:21;4.20;99.90
20714;DHT22;10518;50.742;4.226;2023-03-01T11:36:59;4.20;99.90
20714;DHT22;10518;50.742;4.226;2023-03-01T11:39:39;4.40;99.90
20714;DHT22;10518;50.742;4.226;2023-03-01T11:44:36;4.50;99.90
20714;DHT22;10518;50.742;4.226;2023-03-01T11:47:24;4.50;99.90
20714;DHT22;10518;50.742;4.226;2023-03-01T11:55:19;4.80;99.90
20714;DHT22;10518;50.742;4.226;2023-03-01T12:12:27;5.40;99.90
20714;DHT22;10518;50.742;4.226;2023-03-01T12:15:00;5.30;99.90
20714;DHT22;10518;50.742;4.226;2023-03-01T12:39:56;5.40;99.90
20714;DHT22;10518;50.742;4.226;2023-03-01T12:42:48;5.40;99.90
20714;DHT22;10518;50.742;4.226;2023-03-01T12:45:34;5.40;99.90
20714;DHT22;10518;50.742;4.226;2023-03-01T12:50:44;5.50;99.90
20714;DHT22;10518;50.742;4.226;2023-03-01T12:53:51;5.80;99.90
20714;DHT22;10518;50.742;4.226;2023-03-01T12:56:24;5.80;99.90
20714;DHT22;10518;50.742;4.226;2023-03-01T13:09:43;5.90;99.90
20714;DHT22;10518;50.742;4.226;2023-03-01T13:17:48;6.10;99.90
20714;DHT22;10518;50.742;4.226;2023-03-01T13:20:16;6.10;99.90
20714;DHT22;10518;50.742;4.226;2023-03-01T13:22:42;5.80;99.90
20714;DHT22;10518;50.742;4.226;2023-03-01T13:25:15;5.90;99.90
20714;DHT22;10518;50.742;4.226;2023-03-01T13:27:42;5.90;99.90
20714;DHT22;10518;50.742;4.226;2023-03-01T13:30:38;5.90;99.90
20714;DHT22;10518;50.742;4.226;2023-03-01T13:35:48;6.20;99.90
20714;DHT22;10518;50.742;4.226;2023-03-01T13:38:46;6.20;99.90
20714;DHT22;10518;50.742;4.226;2023-03-01T13:41:27;6.10;99.90
20714;DHT22;10518;50.742;4.226;2023-03-01T13:44:24;6.30;99.90
20714;DHT22;10518;50.742;4.226;2023-03-01T13:55:25;6.30;99.90
20714;DHT22;10518;50.742;4.226;2023-03-01T13:57:56;6.40;99.90
20714;DHT22;10518;50.742;4.226;2023-03-01T14:00:32;6.40;99.90
20714;DHT22;10518;50.742;4.226;2023-03-01T14:03:19;6.40;99.90
20714;DHT22;10518;50.742;4.226;2023-03-01T14:06:14;6.40;99.90
20714;DHT22;10518;50.742;4.226;2023-03-01T14:08:44;6.40;99.90
20714;DHT22;10518;50.742;4.226;2023-03-01T14:14:23;6.50;99.90
20714;DHT22;10518;50.742;4.226;2023-03-01T14:19:40;6.70;99.90
20714;DHT22;10518;50.742;4.226;2023-03-01T14:24:51;6.50;99.90
20714;DHT22;10518;50.742;4.226;2023-03-01T14:27:18;6.40;99.90
20714;DHT22;10518;50.742;4.226;2023-03-01T14:29:44;6.40;99.90
20714;DHT22;10518;50.742;4.226;2023-03-01T14:32:21;6.40;99.90
20714;DHT22;10518;50.742;4.226;2023-03-01T14:34:50;6.40;99.90
20714;DHT22;10518;50.742;4.226;2023-03-01T14:37:29;6.70;99.90
20714;DHT22;10518;50.742;4.226;2023-03-01T14:39:55;6.60;99.90
20714;DHT22;10518;50.742;4.226;2023-03-01T14:42:24;6.50;99.90
20714;DHT22;10518;50.742;4.226;2023-03-01T14:44:52;6.60;99.90
20714;DHT22;10518;50.742;4.226;2023-03-01T14:47:31;6.80;99.90
20714;DHT22;10518;50.742;4.226;2023-03-01T14:50:00;6.70;99.90
20714;DHT22;10518;50.742;4.226;2023-03-01T14:52:47;6.80;99.90
20714;DHT22;10518;50.742;4.226;2023-03-01T14:55:19;6.80;99.90
20714;DHT22;10518;50.742;4.226;2023-03-01T14:57:47;7.00;99.90
20714;DHT22;10518;50.742;4.226;2023-03-01T15:02:47;6.80;99.90
20714;DHT22;10518;50.742;4.226;2023-03-01T15:05:14;6.70;99.90
20714;DHT22;10518;50.742;4.226;2023-03-01T15:07:42;6.50;99.90
20714;DHT22;10518;50.742;4.226;2023-03-01T15:10:32;6.40;99.90
20714;DHT22;10518;50.742;4.226;2023-03-01T15:13:14;6.40;99.90
20714;DHT22;10518;50.742;4.226;2023-03-01T15:15:47;6.60;99.90
20714;DHT22;10518;50.742;4.226;2023-03-01T15:18:20;6.50;99.90
20714;DHT22;10518;50.742;4.226;2023-03-01T15:20:48;6.50;99.90
20714;DHT22;10518;50.742;4.226;2023-03-01T15:23:26;6.50;99.90
20714;DHT22;10518;50.742;4.226;2023-03-01T15:25:53;6.80;99.90
20714;DHT22;10518;50.742;4.226;2023-03-01T15:28:28;6.80;99.90
20714;DHT22;10518;50.742;4.226;2023-03-01T15:30:57;6.80;99.90
20714;DHT22;10518;50.742;4.226;2023-03-01T15:33:37;6.70;99.90
20714;DHT22;10518;50.742;4.226;2023-03-01T15:38:58;6.90;99.90
20714;DHT22;10518;50.742;4.226;2023-03-01T15:41:30;6.60;99.90
20714;DHT22;10518;50.742;4.226;2023-03-01T15:43:58;6.80;99.90
20714;DHT22;10518;50.742;4.226;2023-03-01T15:46:30;6.80;99.90
20714;DHT22;10518;50.742;4.226;2023-03-01T15:49:00;6.80;99.90
20714;DHT22;10518;50.742;4.226;2023-03-01T15:51:32;6.90;99.90
20714;DHT22;10518;50.742;4.226;2023-03-01T15:54:01;6.80;99.90
20714;DHT22;10518;50.742;4.226;2023-03-01T15:56:27;6.80;99.90
20714;DHT22;10518;50.742;4.226;2023-03-01T15:58:52;6.60;99.90
20714;DHT22;10518;50.742;4.226;2023-03-01T16:01:18;6.50;99.90
20714;DHT22;10518;50.742;4.226;2023-03-01T16:03:44;6.40;99.90
20714;DHT22;10518;50.742;4.226;2023-03-01T16:06:11;6.40;99.90
20714;DHT22;10518;50.742;4.226;2023-03-01T16:08:37;6.50;99.90
20714;DHT22;10518;50.742;4.226;2023-03-01T16:11:05;6.50;99.90
20714;DHT22;10518;50.742;4.226;2023-03-01T16:16:14;6.50;99.90
20714;DHT22;10518;50.742;4.226;2023-03-01T16:18:47;6.50;99.90
20714;DHT22;10518;50.742;4.226;2023-03-01T16:21:20;6.60;99.90
20714;DHT22;10518;50.742;4.226;2023-03-01T16:23:46;6.80;99.90
20714;DHT22;10518;50.742;4.226;2023-03-01T16:26:12;6.70;99.90
20714;DHT22;10518;50.742;4.226;2023-03-01T16:28:39;6.50;99.90
20714;DHT22;10518;50.742;4.226;2023-03-01T16:31:05;6.50;99.90
20714;DHT22;10518;50.742;4.226;2023-03-01T16:33:31;6.50;99.90
20714;DHT22;10518;50.742;4.226;2023-03-01T16:35:56;6.40;99.90
20714;DHT22;10518;50.742;4.226;2023-03-01T16:38:23;6.30;99.90
20714;DHT22;10518;50.742;4.226;2023-03-01T16:40:50;6.20;99.90
20714;DHT22;10518;50.742;4.226;2023-03-01T16:43:16;6.30;99.90
20714;DHT22;10518;50.742;4.226;2023-03-01T16:45:41;6.20;99.90
20714;DHT22;10518;50.742;4.226;2023-03-01T16:48:10;6.10;99.90
20714;DHT22;10518;50.742;4.226;2023-03-01T16:50:35;6.10;99.90
20714;DHT22;10518;50.742;4.226;2023-03-01T16:53:01;6.10;99.90
20714;DHT22;10518;50.742;4.226;2023-03-01T16:55:27;6.30;99.90
20714;DHT22;10518;50.742;4.226;2023-03-01T16:57:53;6.30;99.90
20714;DHT22;10518;50.742;4.226;2023-03-01T17:00:19;6.20;99.90
20714;DHT22;10518;50.742;4.226;2023-03-01T17:02:44;6.20;99.90
20714;DHT22;10518;50.742;4.226;2023-03-01T17:05:10;6.20;99.90
20714;DHT22;10518;50.742;4.226;2023-03-01T17:07:37;6.10;99.90
20714;DHT22;10518;50.742;4.226;2023-03-01T17:10:08;6.00;99.90
20714;DHT22;10518;50.742;4.226;2023-03-01T17:12:35;6.00;99.90
20714;DHT22;10518;50.742;4.226;2023-03-01T17:15:01;5.90;99.90
20714;DHT22;10518;50.742;4.226;2023-03-01T17:17:27;5.90;99.90
20714;DHT22;10518;50.742;4.226;2023-03-01T17:19:53;5.80;99.90
20714;DHT22;10518;50.742;4.226;2023-03-01T17:22:18;5.90;99.90
20714;DHT22;10518;50.742;4.226;2023-03-01T17:24:44;5.80;99.90
20714;DHT22;10518;50.742;4.226;2023-03-01T17:27:11;5.70;99.90
20714;DHT22;10518;50.742;4.226;2023-03-01T17:29:38;5.50;99.90
20714;DHT22;10518;50.742;4.226;2023-03-01T17:32:04;5.60;99.90
20714;DHT22;10518;50.742;4.226;2023-03-01T17:34:31;5.70;99.90
20714;DHT22;10518;50.742;4.226;2023-03-01T17:36:57;5.80;99.90
20714;DHT22;10518;50.742;4.226;2023-03-01T17:39:23;5.80;99.90
20714;DHT22;10518;50.742;4.226;2023-03-01T17:41:56;5.60;99.90
20714;DHT22;10518;50.742;4.226;2023-03-01T17:44:22;5.60;99.90
20714;DHT22;10518;50.742;4.226;2023-03-01T17:46:48;5.60;99.90
20714;DHT22;10518;50.742;4.226;2023-03-01T17:49:13;5.60;99.90
20714;DHT22;10518;50.742;4.226;2023-03-01T17:51:41;5.60;99.90
20714;DHT22;10518;50.742;4.226;2023-03-01T17:54:07;5.60;99.90
20714;DHT22;10518;50.742;4.226;2023-03-01T17:56:32;5.70;99.90
20714;DHT22;10518;50.742;4.226;2023-03-01T17:58:58;5.50;99.90